Time;durP1;ratioP1;P1;durP2;ratioP2;P2;SDS_P1;SDS_P2;PMS_P1;PMS_P2;Temp;Humidity;BMP_temperature;BMP_pressure;BME280_temperature;BME280_humidity;BME280_pressure;Samples;Min_cycle;Max_cycle;Signal;HPM_P1;HPM_P2
2023/09/17 00:00:32;;;;;;;12.65;7.78;;;21.00;64.60;;;;;;5026563;28;20025;-76
2023/09/17 00:02:58;;;;;;;10.73;6.93;;;21.10;64.60;;;;;;5027084;28;20077;-77
2023/09/17 00:05:24;;;;;;;10.15;7.07;;;21.00;64.40;;;;;;5023919;28;20123;-76
2023/09/17 00:07:50;;;;;;;11.65;7.60;;;21.00;64.00;;;;;;5024400;28;20033;-77
2023/09/17 00:10:16;;;;;;;11.80;7.63;;;21.00;63.70;;;;;;5024466;28;20115;-76
2023/09/17 00:12:42;;;;;;;12.43;7.70;;;21.00;63.50;;;;;;5008824;28;20036;-77
2023/09/17 00:15:08;;;;;;;10.98;7.55;;;21.00;63.30;;;;;;5024272;28;20108;-78
2023/09/17 00:17:34;;;;;;;9.90;7.20;;;21.00;63.10;;;;;;5023224;28;20109;-76
2023/09/17 00:20:00;;;;;;;10.13;7.10;;;21.00;63.00;;;;;;5025859;28;20113;-76
2023/09/17 00:22:26;;;;;;;10.75;7.03;;;21.00;62.80;;;;;;5024037;28;20148;-76
2023/09/17 00:24:52;;;;;;;10.73;7.82;;;21.00;62.70;;;;;;5029854;28;20037;-77
2023/09/17 00:27:17;;;;;;;10.38;6.80;;;21.00;62.50;;;;;;5028131;28;20018;-76
2023/09/17 00:29:43;;;;;;;9.45;6.35;;;21.00;62.40;;;;;;5026106;28;20026;-76
2023/09/17 00:32:09;;;;;;;10.75;6.95;;;21.00;62.50;;;;;;5046313;28;20038;-77
2023/09/17 00:34:35;;;;;;;10.68;6.75;;;21.00;62.30;;;;;;5041519;28;20044;-76
2023/09/17 00:37:00;;;;;;;10.95;7.25;;;21.00;62.10;;;;;;5027436;28;20036;-76
2023/09/17 00:39:27;;;;;;;10.50;6.85;;;21.00;61.90;;;;;;5036561;28;20044;-76
2023/09/17 00:41:53;;;;;;;9.30;6.45;;;21.00;61.70;;;;;;5026984;28;20117;-76
2023/09/17 00:44:19;;;;;;;9.45;7.10;;;21.00;61.60;;;;;;5026041;28;20335;-75
2023/09/17 00:46:46;;;;;;;9.93;6.35;;;21.00;61.80;;;;;;5037341;28;20099;-75
2023/09/17 00:49:14;;;;;;;9.50;6.68;;;20.90;61.90;;;;;;5026370;28;20056;-75
2023/09/17 00:51:41;;;;;;;10.43;6.95;;;20.90;62.20;;;;;;5041437;28;20033;-75
2023/09/17 00:54:09;;;;;;;10.00;6.72;;;20.90;62.40;;;;;;5027769;28;20455;-75
2023/09/17 00:56:36;;;;;;;11.88;7.63;;;20.80;62.50;;;;;;5030784;28;20017;-75
2023/09/17 00:59:03;;;;;;;10.63;7.82;;;20.70;62.90;;;;;;5030062;28;20042;-75
2023/09/17 01:01:29;;;;;;;10.90;7.43;;;20.70;63.20;;;;;;5041974;28;20116;-75
2023/09/17 01:03:57;;;;;;;10.27;7.13;;;20.60;63.50;;;;;;5005968;28;20033;-75
2023/09/17 01:06:23;;;;;;;11.68;8.25;;;20.60;63.80;;;;;;5028825;28;20068;-75
2023/09/17 01:08:50;;;;;;;11.35;7.68;;;20.50;63.90;;;;;;5026839;28;20022;-75
2023/09/17 01:11:16;;;;;;;10.82;8.18;;;20.50;64.10;;;;;;5029508;28;20462;-75
2023/09/17 01:14:10;;;;;;;10.82;8.10;;;20.50;64.20;;;;;;5043127;28;20037;-76
2023/09/17 01:16:30;;;;;;;11.25;8.23;;;20.50;64.10;;;;;;5027802;28;20064;-75
2023/09/17 01:18:56;;;;;;;11.90;8.25;;;20.50;64.10;;;;;;5026283;28;20119;-75
2023/09/17 01:21:48;;;;;;;11.60;8.77;;;20.50;64.00;;;;;;5026410;28;20087;-75
2023/09/17 01:24:30;;;;;;;12.27;8.38;;;20.50;64.10;;;;;;5029037;28;20104;-75
2023/09/17 01:27:02;;;;;;;10.95;7.90;;;20.40;64.00;;;;;;5028110;28;20083;-75
2023/09/17 01:29:37;;;;;;;11.60;8.38;;;20.40;64.40;;;;;;5029221;28;20029;-75
2023/09/17 01:32:04;;;;;;;12.38;8.52;;;20.40;65.20;;;;;;5028674;28;20033;-74
2023/09/17 01:34:32;;;;;;;12.90;9.98;;;20.30;64.70;;;;;;5029794;28;20033;-74
2023/09/17 01:37:02;;;;;;;14.60;10.02;;;20.30;65.10;;;;;;5024773;28;20447;-74
2023/09/17 01:39:34;;;;;;;12.03;9.37;;;20.30;65.80;;;;;;5028568;28;20404;-75
2023/09/17 01:42:03;;;;;;;13.10;9.07;;;20.20;66.10;;;;;;5023766;28;20060;-74
2023/09/17 01:44:30;;;;;;;13.52;9.65;;;20.10;66.30;;;;;;5026501;28;20044;-75
2023/09/17 01:47:00;;;;;;;13.23;10.20;;;20.10;66.60;;;;;;5011384;28;20476;-75
2023/09/17 01:49:27;;;;;;;13.13;9.75;;;20.00;66.90;;;;;;5025901;28;20030;-75
2023/09/17 01:51:56;;;;;;;13.32;10.07;;;20.00;67.30;;;;;;5041054;28;20033;-75
2023/09/17 01:54:23;;;;;;;12.88;9.90;;;20.00;67.70;;;;;;5041988;28;20021;-75
2023/09/17 01:56:48;;;;;;;13.70;10.00;;;19.90;67.80;;;;;;5025942;28;20533;-75
2023/09/17 01:59:15;;;;;;;11.95;9.48;;;19.90;67.90;;;;;;5044341;28;20144;-74
2023/09/17 02:01:42;;;;;;;12.75;9.80;;;19.80;68.10;;;;;;5029079;28;20371;-75
2023/09/17 02:04:08;;;;;;;13.82;10.32;;;19.80;68.30;;;;;;5024521;28;20029;-75
2023/09/17 02:06:35;;;;;;;11.85;9.15;;;19.70;68.20;;;;;;5028738;28;20032;-75
2023/09/17 02:09:00;;;;;;;14.30;10.18;;;19.80;68.40;;;;;;5027526;28;20372;-75
2023/09/17 02:11:26;;;;;;;11.75;9.38;;;19.70;68.60;;;;;;5027812;28;20037;-75
2023/09/17 02:13:52;;;;;;;13.32;10.15;;;19.70;68.60;;;;;;5028531;28;20045;-75
2023/09/17 02:16:20;;;;;;;12.10;9.45;;;19.60;68.80;;;;;;5030081;28;20462;-75
2023/09/17 02:18:46;;;;;;;12.85;10.25;;;19.60;68.90;;;;;;5045962;28;20120;-75
2023/09/17 02:21:12;;;;;;;12.82;10.07;;;19.60;69.10;;;;;;5028135;28;20167;-75
2023/09/17 02:23:38;;;;;;;13.43;9.90;;;19.60;69.30;;;;;;5014235;28;20458;-75
2023/09/17 02:26:04;;;;;;;13.82;10.10;;;19.50;69.40;;;;;;5025434;28;20040;-75
2023/09/17 02:28:30;;;;;;;15.30;9.82;;;19.50;69.50;;;;;;5019683;28;20037;-75
2023/09/17 02:30:59;;;;;;;12.38;9.45;;;19.50;69.60;;;;;;5021772;28;20056;-75
2023/09/17 02:33:25;;;;;;;13.75;10.63;;;19.50;69.50;;;;;;5027083;28;20108;-75
2023/09/17 02:35:52;;;;;;;13.10;9.38;;;19.50;69.50;;;;;;5026664;28;20450;-75
2023/09/17 02:38:17;;;;;;;12.27;9.88;;;19.60;69.60;;;;;;5028842;28;20120;-75
2023/09/17 02:40:43;;;;;;;13.38;9.63;;;19.50;69.70;;;;;;5028428;28;20036;-75
2023/09/17 02:43:09;;;;;;;13.07;10.20;;;19.50;69.70;;;;;;5029137;28;20025;-75
2023/09/17 02:45:35;;;;;;;15.75;11.02;;;19.50;69.90;;;;;;5011538;28;20498;-75
2023/09/17 02:48:01;;;;;;;13.75;9.82;;;19.50;69.90;;;;;;5023678;28;20038;-75
2023/09/17 02:50:27;;;;;;;12.43;10.07;;;19.50;70.00;;;;;;5027535;28;20025;-75
2023/09/17 02:52:53;;;;;;;13.65;10.55;;;19.40;69.90;;;;;;5026677;28;20022;-75
2023/09/17 02:55:19;;;;;;;11.10;9.20;;;19.40;69.90;;;;;;5043007;28;20117;-74
2023/09/17 02:57:45;;;;;;;13.52;10.80;;;19.40;69.70;;;;;;5024300;28;20124;-74
2023/09/17 03:00:13;;;;;;;13.73;9.77;;;19.40;69.70;;;;;;5024684;28;20041;-75
2023/09/17 03:02:38;;;;;;;12.45;9.52;;;19.40;69.60;;;;;;5026155;28;20026;-74
2023/09/17 03:05:05;;;;;;;11.45;8.38;;;19.40;69.70;;;;;;5026878;28;20434;-75
2023/09/17 03:07:32;;;;;;;12.50;8.82;;;19.40;69.80;;;;;;5025229;28;20507;-75
2023/09/17 03:09:59;;;;;;;13.30;9.15;;;19.40;70.00;;;;;;5041597;28;20056;-75
2023/09/17 03:12:27;;;;;;;12.63;8.82;;;19.40;70.20;;;;;;5028277;28;20033;-74
2023/09/17 03:14:53;;;;;;;11.02;8.27;;;19.30;70.30;;;;;;5040025;28;20057;-75
2023/09/17 03:17:18;;;;;;;10.45;8.48;;;19.30;70.50;;;;;;5043075;28;20048;-74
2023/09/17 03:19:44;;;;;;;12.43;9.20;;;19.20;70.60;;;;;;5042796;28;20014;-74
2023/09/17 03:22:10;;;;;;;11.80;9.18;;;19.20;70.80;;;;;;5043210;28;20486;-74
2023/09/17 03:24:37;;;;;;;10.98;8.48;;;19.20;71.00;;;;;;5027133;28;21619;-74
2023/09/17 03:27:04;;;;;;;12.45;8.43;;;19.20;71.00;;;;;;5027711;28;20021;-75
2023/09/17 03:29:29;;;;;;;11.43;9.02;;;19.20;71.00;;;;;;5026893;28;20110;-74
2023/09/17 03:31:55;;;;;;;12.07;8.75;;;19.20;71.10;;;;;;5025347;28;20359;-74
2023/09/17 03:34:21;;;;;;;13.32;9.05;;;19.20;71.10;;;;;;5027144;28;20037;-74
2023/09/17 03:36:47;;;;;;;12.98;8.73;;;19.20;71.20;;;;;;5042350;28;20120;-75
2023/09/17 03:39:13;;;;;;;12.77;8.93;;;19.10;71.30;;;;;;5040799;28;20105;-75
2023/09/17 03:41:40;;;;;;;12.57;8.23;;;19.10;71.40;;;;;;5026251;28;20512;-74
2023/09/17 03:44:09;;;;;;;11.90;8.80;;;19.10;71.50;;;;;;5008825;28;20029;-74
2023/09/17 03:46:37;;;;;;;12.45;9.20;;;19.10;72.20;;;;;;5009375;28;20109;-74
2023/09/17 03:49:03;;;;;;;11.75;9.35;;;19.10;71.70;;;;;;5028247;28;20037;-74
2023/09/17 03:51:31;;;;;;;11.60;8.60;;;19.10;71.90;;;;;;5027222;28;20126;-74
2023/09/17 03:53:57;;;;;;;11.48;8.68;;;19.00;72.00;;;;;;5041743;28;20068;-74
2023/09/17 03:56:24;;;;;;;12.40;8.63;;;19.00;72.10;;;;;;5031127;28;20057;-74
2023/09/17 03:58:52;;;;;;;13.18;9.55;;;19.10;72.30;;;;;;5030399;28;20037;-74
2023/09/17 04:01:18;;;;;;;13.20;8.55;;;19.00;72.30;;;;;;5027170;28;20484;-74
2023/09/17 04:03:45;;;;;;;13.63;9.20;;;19.00;72.40;;;;;;5029587;28;20029;-74
2023/09/17 04:06:11;;;;;;;13.45;9.35;;;19.00;72.50;;;;;;5032373;28;20037;-73
2023/09/17 04:08:37;;;;;;;13.10;9.25;;;19.10;72.90;;;;;;5028885;28;20040;-74
2023/09/17 04:11:04;;;;;;;13.52;9.65;;;19.00;72.70;;;;;;5031279;28;20029;-74
2023/09/17 04:13:30;;;;;;;12.90;9.70;;;19.00;72.90;;;;;;5043794;28;20063;-74
2023/09/17 04:15:56;;;;;;;13.23;9.70;;;19.00;73.00;;;;;;5029942;28;20033;-74
2023/09/17 04:18:22;;;;;;;14.30;9.80;;;19.00;73.10;;;;;;5028694;28;20662;-74
2023/09/17 04:20:48;;;;;;;14.15;9.85;;;19.00;73.30;;;;;;5008941;28;20026;-74
2023/09/17 04:23:13;;;;;;;13.32;10.30;;;19.00;73.40;;;;;;5023842;28;20033;-74
2023/09/17 04:25:39;;;;;;;11.85;8.73;;;19.00;73.70;;;;;;5027667;28;21760;-74
2023/09/17 04:28:06;;;;;;;14.45;10.23;;;19.00;73.90;;;;;;5028784;28;20107;-75
2023/09/17 04:30:32;;;;;;;12.68;9.60;;;18.90;74.10;;;;;;5028569;28;20441;-74
2023/09/17 04:32:57;;;;;;;13.68;9.40;;;18.90;74.30;;;;;;5030541;28;20074;-75
2023/09/17 04:35:23;;;;;;;13.18;9.63;;;19.00;74.60;;;;;;5038494;28;20025;-74
2023/09/17 04:37:50;;;;;;;14.30;10.38;;;18.90;74.70;;;;;;5026661;28;21493;-74
2023/09/17 04:40:24;;;;;;;15.45;10.07;;;19.00;74.90;;;;;;5023664;28;20017;-75
2023/09/17 04:42:52;;;;;;;13.15;9.43;;;19.00;75.10;;;;;;5027232;28;20051;-74
2023/09/17 04:45:39;;;;;;;15.38;10.48;;;19.00;75.20;;;;;;5034253;28;20058;-75
2023/09/17 04:48:25;;;;;;;12.75;9.60;;;19.00;75.30;;;;;;5026236;28;20413;-75
2023/09/17 04:50:50;;;;;;;14.00;10.48;;;19.00;75.40;;;;;;5025583;28;20021;-75
2023/09/17 04:53:16;;;;;;;15.35;10.65;;;18.90;75.40;;;;;;5027055;28;20414;-74
2023/09/17 04:55:44;;;;;;;13.95;11.05;;;19.00;75.60;;;;;;5042495;28;20036;-74
2023/09/17 04:58:11;;;;;;;14.13;11.02;;;19.00;75.70;;;;;;5028331;28;20630;-74
2023/09/17 05:00:37;;;;;;;15.80;11.30;;;18.90;75.70;;;;;;5027535;28;20076;-75
2023/09/17 05:03:03;;;;;;;13.27;10.27;;;18.90;75.80;;;;;;5039910;28;20103;-75
2023/09/17 05:05:30;;;;;;;13.52;10.40;;;19.00;76.10;;;;;;5021607;28;20369;-74
2023/09/17 05:07:56;;;;;;;12.65;9.57;;;19.00;76.20;;;;;;5035722;28;20084;-74
2023/09/17 05:10:22;;;;;;;14.20;11.20;;;19.00;76.30;;;;;;5040961;28;20406;-74
2023/09/17 05:12:48;;;;;;;13.75;10.43;;;19.00;76.20;;;;;;5037413;28;20362;-74
2023/09/17 05:15:14;;;;;;;14.05;10.63;;;19.00;76.30;;;;;;5019363;28;20021;-74
2023/09/17 05:17:41;;;;;;;13.15;10.63;;;19.00;76.30;;;;;;5038664;28;20461;-74
2023/09/17 05:20:07;;;;;;;16.15;11.25;;;19.00;76.40;;;;;;5027546;28;20034;-74
2023/09/17 05:22:34;;;;;;;13.77;10.45;;;19.00;76.50;;;;;;5039126;28;20033;-74
2023/09/17 05:25:02;;;;;;;13.80;11.23;;;19.00;76.50;;;;;;5026826;28;20104;-73
2023/09/17 05:27:28;;;;;;;16.30;11.90;;;19.00;76.50;;;;;;5029092;28;20052;-74
2023/09/17 05:29:54;;;;;;;17.70;12.10;;;19.00;76.60;;;;;;5027905;28;21733;-74
2023/09/17 05:32:20;;;;;;;16.33;11.25;;;19.00;76.80;;;;;;5040607;28;20021;-73
2023/09/17 05:34:45;;;;;;;13.82;10.60;;;18.90;76.90;;;;;;5025033;28;20025;-73
2023/09/17 05:37:12;;;;;;;14.90;10.98;;;18.90;76.90;;;;;;5041756;28;20450;-74
2023/09/17 05:39:38;;;;;;;14.07;10.38;;;18.90;77.10;;;;;;5044023;28;20026;-73
2023/09/17 05:42:04;;;;;;;13.45;9.70;;;19.00;77.20;;;;;;5030959;28;20029;-73
2023/09/17 05:44:30;;;;;;;16.42;10.48;;;18.90;77.20;;;;;;5040059;28;20094;-74
2023/09/17 05:46:57;;;;;;;13.63;10.23;;;18.90;77.20;;;;;;5044176;28;20029;-73
2023/09/17 05:49:23;;;;;;;14.48;10.10;;;19.00;77.40;;;;;;5011395;28;20397;-73
2023/09/17 05:51:48;;;;;;;13.40;10.23;;;19.00;77.50;;;;;;5029574;28;20030;-73
2023/09/17 05:54:15;;;;;;;14.80;11.52;;;18.90;77.50;;;;;;5029980;28;20025;-74
2023/09/17 05:56:41;;;;;;;14.05;10.00;;;19.00;77.60;;;;;;5013965;28;20029;-73
2023/09/17 05:59:07;;;;;;;13.02;9.60;;;19.00;77.70;;;;;;5024072;28;20084;-72
2023/09/17 06:01:33;;;;;;;13.50;10.00;;;19.00;77.80;;;;;;5029161;28;20033;-72
2023/09/17 06:03:58;;;;;;;13.75;10.45;;;19.00;77.80;;;;;;5028835;28;20072;-72
2023/09/17 06:06:24;;;;;;;13.50;9.48;;;19.00;77.90;;;;;;5045982;28;20120;-73
2023/09/17 06:08:50;;;;;;;12.30;9.50;;;19.00;77.90;;;;;;5044629;28;20040;-73
2023/09/17 06:11:18;;;;;;;13.57;10.15;;;19.00;77.90;;;;;;5040579;28;20048;-72
2023/09/17 06:13:44;;;;;;;12.07;9.10;;;19.00;78.10;;;;;;5032449;28;20399;-72
2023/09/17 06:16:10;;;;;;;12.73;9.13;;;19.00;78.10;;;;;;5043796;28;20060;-72
2023/09/17 06:18:36;;;;;;;13.60;9.27;;;18.90;78.10;;;;;;5045288;28;20255;-73
2023/09/17 06:21:03;;;;;;;12.45;9.00;;;18.90;78.20;;;;;;5020268;28;20021;-74
2023/09/17 06:23:29;;;;;;;12.57;9.00;;;18.90;78.20;;;;;;5033598;28;20036;-75
2023/09/17 06:25:55;;;;;;;11.98;9.25;;;18.90;78.20;;;;;;5036506;28;20065;-75
2023/09/17 06:28:21;;;;;;;11.77;9.23;;;18.90;78.50;;;;;;5047990;28;20056;-75
2023/09/17 06:30:46;;;;;;;12.93;8.90;;;19.00;78.30;;;;;;5042300;28;20028;-75
2023/09/17 06:33:12;;;;;;;12.30;8.70;;;19.00;78.20;;;;;;5038399;28;20029;-75
2023/09/17 06:35:38;;;;;;;12.70;9.27;;;18.90;78.10;;;;;;5050136;28;20025;-74
2023/09/17 06:38:04;;;;;;;13.05;9.05;;;19.00;78.20;;;;;;5036420;28;20403;-75
2023/09/17 06:40:30;;;;;;;13.00;8.60;;;18.90;78.10;;;;;;5050025;28;20025;-75
2023/09/17 06:42:56;;;;;;;13.05;8.70;;;19.00;78.10;;;;;;5054767;28;20033;-74
2023/09/17 06:45:22;;;;;;;11.95;8.27;;;18.90;78.00;;;;;;5056234;28;20029;-75
2023/09/17 06:47:47;;;;;;;11.90;7.75;;;18.90;78.10;;;;;;5046320;28;20048;-75
2023/09/17 06:50:13;;;;;;;10.48;7.65;;;18.90;78.10;;;;;;5041642;28;20092;-75
2023/09/17 06:52:39;;;;;;;11.57;8.20;;;18.90;78.00;;;;;;5046513;28;20033;-76
2023/09/17 06:55:05;;;;;;;10.98;7.93;;;18.90;78.00;;;;;;5014848;28;20405;-75
2023/09/17 06:57:31;;;;;;;11.27;8.15;;;19.00;78.00;;;;;;5045292;28;20033;-75
2023/09/17 06:59:57;;;;;;;12.15;7.82;;;19.00;78.00;;;;;;5030838;28;20032;-76
2023/09/17 07:02:23;;;;;;;10.38;7.75;;;19.00;78.00;;;;;;5030956;28;20040;-75
2023/09/17 07:04:49;;;;;;;11.43;8.27;;;19.00;77.90;;;;;;5032071;28;20029;-75
2023/09/17 07:07:15;;;;;;;11.15;8.00;;;19.00;78.10;;;;;;5030521;28;20088;-75
2023/09/17 07:09:41;;;;;;;10.43;7.35;;;19.00;77.90;;;;;;5031169;28;20073;-76
2023/09/17 07:12:07;;;;;;;10.57;7.55;;;19.00;77.80;;;;;;5031230;28;20067;-78
2023/09/17 07:14:32;;;;;;;10.00;7.30;;;19.00;77.80;;;;;;5023418;28;20505;-73
2023/09/17 07:16:58;;;;;;;11.00;7.32;;;19.00;77.80;;;;;;5032568;28;20052;-75
2023/09/17 07:19:24;;;;;;;11.27;7.55;;;19.10;77.80;;;;;;5029718;28;20029;-75
2023/09/17 07:21:50;;;;;;;12.02;7.63;;;19.10;77.70;;;;;;5033594;28;20033;-75
2023/09/17 07:24:16;;;;;;;12.23;8.05;;;19.10;77.60;;;;;;5033700;28;20040;-75
2023/09/17 07:26:42;;;;;;;10.93;7.28;;;19.10;77.70;;;;;;5049719;28;20397;-74
2023/09/17 07:29:08;;;;;;;12.05;7.28;;;19.20;77.60;;;;;;5048468;28;20038;-80
2023/09/17 07:31:34;;;;;;;12.82;7.50;;;19.20;77.50;;;;;;5037322;28;20076;-77
2023/09/17 07:33:59;;;;;;;11.23;7.18;;;19.20;77.40;;;;;;5060606;28;20091;-81
2023/09/17 07:36:25;;;;;;;11.20;7.10;;;19.20;77.50;;;;;;5046267;28;20029;-78
2023/09/17 07:38:51;;;;;;;11.52;7.95;;;19.10;77.50;;;;;;5034367;28;20347;-78
2023/09/17 07:41:17;;;;;;;10.55;7.28;;;19.20;77.60;;;;;;5033147;28;20029;-79
2023/09/17 07:43:43;;;;;;;11.55;7.88;;;19.20;77.70;;;;;;5050840;28;20335;-80
2023/09/17 07:46:13;;;;;;;10.60;7.00;;;19.20;77.60;;;;;;5032105;28;20052;-80
2023/09/17 07:48:43;;;;;;;11.55;7.90;;;19.10;77.50;;;;;;5033137;28;20059;-77
2023/09/17 07:51:09;;;;;;;11.05;7.60;;;19.10;77.50;;;;;;5048492;28;20067;-79
2023/09/17 07:53:35;;;;;;;10.70;7.28;;;19.10;77.40;;;;;;5028783;28;20380;-80
2023/09/17 07:56:01;;;;;;;12.18;7.68;;;19.10;77.40;;;;;;5040348;28;20453;-80
2023/09/17 07:58:27;;;;;;;11.43;7.78;;;19.10;77.40;;;;;;5038610;28;20034;-80
2023/09/17 08:00:53;;;;;;;11.30;7.50;;;19.20;77.50;;;;;;5060507;28;20033;-80
2023/09/17 08:03:19;;;;;;;10.18;7.18;;;19.20;77.50;;;;;;5067027;28;20040;-80
2023/09/17 08:05:49;;;;;;;11.25;7.57;;;19.20;77.30;;;;;;5053242;28;20327;-79
2023/09/17 08:08:15;;;;;;;11.60;8.02;;;19.20;77.30;;;;;;5036843;28;20029;-80
2023/09/17 08:10:41;;;;;;;13.38;8.93;;;19.20;77.20;;;;;;5036036;28;20143;-77
2023/09/17 08:13:08;;;;;;;11.82;8.00;;;19.20;77.30;;;;;;5046276;28;20516;-79
2023/09/17 08:15:34;;;;;;;11.88;8.23;;;19.20;77.30;;;;;;5049928;28;20032;-81
2023/09/17 08:18:01;;;;;;;11.20;8.30;;;19.20;77.20;;;;;;5031719;28;20374;-80
2023/09/17 08:20:27;;;;;;;12.80;9.27;;;19.30;77.20;;;;;;5046078;28;20025;-81
2023/09/17 08:22:53;;;;;;;13.57;9.18;;;19.30;77.10;;;;;;5025673;28;20037;-75
2023/09/17 08:25:19;;;;;;;13.95;9.45;;;19.30;77.00;;;;;;5038057;28;20030;-78
2023/09/17 08:27:47;;;;;;;13.18;9.73;;;19.30;76.90;;;;;;5047143;28;20075;-77
2023/09/17 08:30:13;;;;;;;13.95;9.73;;;19.30;76.90;;;;;;5038183;28;20067;-78
2023/09/17 08:32:44;;;;;;;13.73;9.82;;;19.30;77.50;;;;;;5031244;28;20037;-79
2023/09/17 08:35:18;;;;;;;13.30;9.43;;;19.30;76.80;;;;;;5030099;28;20398;-78
2023/09/17 08:37:44;;;;;;;14.02;9.63;;;19.30;76.80;;;;;;5032758;28;20124;-78
2023/09/17 08:40:17;;;;;;;14.55;9.80;;;19.30;76.80;;;;;;5030818;28;20048;-77
2023/09/17 08:42:45;;;;;;;15.50;10.07;;;19.30;76.80;;;;;;5032098;28;20026;-77
2023/09/17 08:45:12;;;;;;;14.82;10.63;;;19.30;76.90;;;;;;5033220;28;20421;-77
2023/09/17 08:47:38;;;;;;;15.13;10.98;;;19.30;77.00;;;;;;5038917;28;20017;-77
2023/09/17 08:50:05;;;;;;;13.70;10.40;;;19.30;77.10;;;;;;5033006;28;20417;-77
2023/09/17 08:52:34;;;;;;;14.48;11.27;;;19.20;77.20;;;;;;5029815;28;20041;-79
2023/09/17 08:55:02;;;;;;;14.68;11.75;;;19.20;77.20;;;;;;5026674;28;20067;-76
2023/09/17 08:57:32;;;;;;;14.60;11.23;;;19.20;77.40;;;;;;5028328;28;20175;-76
2023/09/17 09:00:10;;;;;;;15.50;12.05;;;19.30;77.40;;;;;;5031574;28;20037;-76
2023/09/17 09:02:50;;;;;;;16.30;12.43;;;19.20;77.50;;;;;;5035222;28;20068;-75
2023/09/17 09:05:17;;;;;;;16.30;12.10;;;19.30;77.70;;;;;;5047571;28;20026;-75
2023/09/17 09:07:44;;;;;;;16.80;12.80;;;19.20;77.70;;;;;;5036431;28;20037;-75
2023/09/17 09:10:13;;;;;;;17.40;13.60;;;19.20;77.80;;;;;;5020304;28;20061;-76
2023/09/17 09:12:39;;;;;;;17.08;12.70;;;19.20;77.90;;;;;;5034239;28;20034;-76
2023/09/17 09:15:07;;;;;;;16.65;12.70;;;19.30;78.10;;;;;;5043834;28;20079;-76
2023/09/17 09:17:32;;;;;;;16.42;12.68;;;19.30;78.10;;;;;;5034240;28;20025;-76
2023/09/17 09:19:58;;;;;;;16.05;12.48;;;19.30;78.10;;;;;;5034359;28;20195;-76
2023/09/17 09:22:25;;;;;;;17.33;13.65;;;19.30;78.00;;;;;;5050632;28;20021;-76
2023/09/17 09:24:51;;;;;;;17.95;14.10;;;19.40;78.10;;;;;;5032141;28;20021;-76
2023/09/17 09:27:17;;;;;;;19.55;14.82;;;19.40;78.20;;;;;;5045031;28;20107;-76
2023/09/17 09:29:43;;;;;;;18.90;13.95;;;19.40;78.30;;;;;;5030587;28;20044;-76
2023/09/17 09:32:10;;;;;;;20.83;13.95;;;19.40;78.30;;;;;;5033826;28;20055;-76
2023/09/17 09:34:40;;;;;;;17.42;14.18;;;19.40;78.40;;;;;;5032814;28;20115;-76
2023/09/17 09:37:08;;;;;;;19.40;13.68;;;19.40;78.50;;;;;;5030357;28;20040;-76
2023/09/17 09:39:37;;;;;;;18.85;14.57;;;19.50;78.50;;;;;;5024694;28;20038;-77
2023/09/17 09:42:08;;;;;;;18.17;14.95;;;19.50;78.50;;;;;;5031465;28;20041;-79
2023/09/17 09:44:36;;;;;;;16.65;13.27;;;19.50;78.50;;;;;;5028718;28;20120;-78
2023/09/17 09:47:05;;;;;;;17.15;14.05;;;19.50;78.50;;;;;;5043864;28;20044;-78
2023/09/17 09:49:44;;;;;;;17.13;13.82;;;19.60;78.50;;;;;;5028749;28;20045;-79
2023/09/17 09:52:14;;;;;;;16.48;14.10;;;19.60;78.50;;;;;;5030208;28;20033;-78
2023/09/17 09:54:41;;;;;;;18.65;14.27;;;19.60;78.50;;;;;;5027805;28;20359;-79
2023/09/17 09:57:07;;;;;;;18.58;14.25;;;19.60;78.50;;;;;;5030630;28;20052;-77
2023/09/17 09:59:36;;;;;;;20.42;14.88;;;19.70;78.60;;;;;;5029912;28;20044;-78
2023/09/17 10:02:05;;;;;;;19.77;15.05;;;19.70;78.60;;;;;;5029118;28;20044;-78
2023/09/17 10:04:31;;;;;;;18.50;15.10;;;19.80;78.70;;;;;;5030399;28;20029;-78
2023/09/17 10:06:58;;;;;;;18.90;14.95;;;19.80;78.80;;;;;;5030396;28;20040;-78
2023/09/17 10:09:25;;;;;;;19.55;15.02;;;19.90;78.70;;;;;;5031376;28;20034;-78
2023/09/17 10:11:53;;;;;;;19.67;16.15;;;19.90;78.70;;;;;;5030398;28;20176;-79
2023/09/17 10:14:21;;;;;;;18.75;15.07;;;19.90;78.60;;;;;;5029154;28;20037;-79
2023/09/17 10:16:49;;;;;;;18.83;15.02;;;20.00;78.80;;;;;;5031253;28;20026;-78
2023/09/17 10:19:20;;;;;;;20.55;15.82;;;20.00;78.80;;;;;;5029856;28;20473;-78
2023/09/17 10:21:49;;;;;;;20.33;16.30;;;20.10;78.80;;;;;;5030910;28;20029;-76
2023/09/17 10:24:17;;;;;;;21.33;16.10;;;20.10;78.70;;;;;;5022624;28;20025;-77
2023/09/17 10:26:45;;;;;;;19.08;16.27;;;20.10;78.70;;;;;;5028279;28;20040;-76
2023/09/17 10:29:13;;;;;;;21.38;16.77;;;20.20;78.80;;;;;;5028605;28;20041;-76
2023/09/17 10:31:42;;;;;;;20.33;16.63;;;20.20;78.90;;;;;;5027550;28;20033;-76
2023/09/17 10:34:13;;;;;;;19.80;15.20;;;20.20;78.90;;;;;;5029342;28;20033;-76
2023/09/17 10:36:39;;;;;;;23.23;16.92;;;20.30;78.80;;;;;;5012827;28;20022;-76
2023/09/17 10:39:09;;;;;;;23.85;17.58;;;20.30;78.60;;;;;;5024484;28;20025;-76
2023/09/17 10:41:37;;;;;;;22.65;17.27;;;20.40;78.70;;;;;;5030499;28;20026;-76
2023/09/17 10:44:04;;;;;;;23.35;17.45;;;20.50;78.60;;;;;;5027293;28;20041;-76
2023/09/17 10:46:31;;;;;;;23.70;17.15;;;20.50;78.60;;;;;;5029307;28;20033;-76
2023/09/17 10:48:58;;;;;;;24.05;18.17;;;20.60;78.60;;;;;;5029405;28;20411;-76
2023/09/17 10:51:26;;;;;;;23.17;17.45;;;20.60;78.60;;;;;;5029094;28;20025;-76
2023/09/17 10:53:53;;;;;;;21.00;17.50;;;20.60;78.60;;;;;;5028587;28;20025;-78
2023/09/17 10:56:20;;;;;;;25.50;17.33;;;20.60;78.60;;;;;;5029118;28;20022;-77
2023/09/17 10:58:50;;;;;;;27.23;18.15;;;20.60;78.70;;;;;;5026399;28;20045;-77
2023/09/17 11:01:20;;;;;;;27.83;18.88;;;20.70;78.80;;;;;;5045068;28;20080;-77
2023/09/17 11:03:51;;;;;;;24.48;18.52;;;20.60;78.80;;;;;;5042074;28;20112;-77
2023/09/17 11:06:23;;;;;;;22.90;17.15;;;20.70;78.90;;;;;;5030122;28;20033;-77
2023/09/17 11:08:55;;;;;;;24.75;18.88;;;20.70;78.90;;;;;;5027860;28;20104;-77
2023/09/17 11:11:23;;;;;;;24.70;18.67;;;20.70;79.00;;;;;;5030951;28;20029;-76
2023/09/17 11:13:51;;;;;;;24.98;18.83;;;20.70;79.10;;;;;;5032320;28;20022;-75
2023/09/17 11:16:23;;;;;;;24.70;19.30;;;20.70;79.20;;;;;;5031452;28;20384;-75
2023/09/17 11:19:07;;;;;;;28.45;21.55;;;20.70;79.30;;;;;;5029808;28;20454;-75
2023/09/17 11:21:37;;;;;;;26.33;19.00;;;20.80;79.30;;;;;;5032578;28;20105;-78
2023/09/17 11:24:06;;;;;;;31.50;21.20;;;20.80;79.30;;;;;;5042271;28;20348;-78
2023/09/17 11:26:37;;;;;;;25.20;20.17;;;20.90;79.30;;;;;;5025598;28;20079;-78
2023/09/17 11:29:06;;;;;;;;;;;20.90;79.10;;;;;;5028064;28;20040;-79
2023/09/17 11:31:52;;;;;;;22.80;17.30;;;21.00;78.90;;;;;;5031302;28;19952;-78
2023/09/17 11:34:18;;;;;;;23.73;19.17;;;21.00;78.90;;;;;;5027654;28;20510;-78
2023/09/17 11:36:47;;;;;;;25.63;19.17;;;21.00;78.90;;;;;;5027527;28;20454;-78
2023/09/17 11:39:15;;;;;;;26.73;20.85;;;21.00;79.00;;;;;;5028460;28;20029;-78
2023/09/17 11:41:46;;;;;;;26.05;19.98;;;21.10;79.10;;;;;;5029046;28;20033;-79
2023/09/17 11:44:12;;;;;;;26.70;20.33;;;21.10;79.10;;;;;;5027218;28;20057;-78
2023/09/17 11:46:38;;;;;;;30.10;20.83;;;21.10;79.10;;;;;;5029960;28;20029;-79
2023/09/17 11:49:08;;;;;;;27.20;20.95;;;21.10;79.10;;;;;;5028849;28;20370;-77
2023/09/17 11:51:34;;;;;;;27.25;19.95;;;21.10;79.20;;;;;;5026342;28;21078;-78
2023/09/17 11:54:06;;;;;;;28.45;21.45;;;21.10;79.40;;;;;;5030112;28;20099;-78
2023/09/17 11:56:45;;;;;;;27.77;21.20;;;21.10;79.50;;;;;;5029487;28;20357;-78
2023/09/17 11:59:15;;;;;;;26.45;20.25;;;21.20;79.60;;;;;;5037296;28;20038;-79
2023/09/17 12:01:47;;;;;;;25.48;20.83;;;21.20;79.50;;;;;;5028543;28;20064;-79
2023/09/17 12:04:14;;;;;;;29.05;21.00;;;21.20;79.60;;;;;;5023082;28;20123;-78
2023/09/17 12:06:46;;;;;;;25.95;20.63;;;21.20;79.50;;;;;;5025543;28;20029;-79
2023/09/17 12:09:24;;;;;;;27.38;21.33;;;21.20;79.60;;;;;;5027391;28;20026;-78
2023/09/17 12:11:50;;;;;;;26.75;21.73;;;21.30;79.60;;;;;;5027594;28;20462;-79
2023/09/17 12:14:19;;;;;;;25.88;20.13;;;21.30;79.60;;;;;;5025367;28;20041;-78
2023/09/17 12:16:48;;;;;;;26.05;20.95;;;21.30;79.70;;;;;;5025695;28;20431;-79
2023/09/17 12:19:14;;;;;;;29.58;20.60;;;21.30;79.80;;;;;;5029094;28;20095;-80
2023/09/17 12:21:50;;;;;;;29.60;22.75;;;21.20;80.00;;;;;;5028387;28;20025;-80
2023/09/17 12:24:38;;;;;;;28.92;21.88;;;21.20;80.10;;;;;;5026234;28;21831;-80
2023/09/17 12:27:24;;;;;;;30.48;22.35;;;21.20;80.30;;;;;;5028036;28;20075;-79
2023/09/17 12:29:54;;;;;;;27.30;21.17;;;21.30;80.30;;;;;;5027966;28;20033;-80
2023/09/17 12:32:30;;;;;;;28.55;22.45;;;21.30;80.50;;;;;;5024526;28;20116;-80
2023/09/17 12:34:57;;;;;;;27.40;22.25;;;21.30;80.60;;;;;;5027536;28;20021;-79